Rockford, Nebraska
Current Conditions -  °F | °C
As of 7:35 AM on Saturday 20 Dec 2014 (Local Time) from KBIE Reporting Station
Haze Haze  
Wind Chill: 26°   Ceiling: 300
Heat Index: 32°   Visibility: 1.5mi
Dew Point: 32°   Wind: 7mph
Humidity: 100%   Direction: 230°SW
Pressure: 30.09"   Gusts: NA
Location:  40.2674°N, 96.7699°W
Report Text: KBIE 201335Z AUTO 23006KT 1 1/2SM BR OVC003 00/00 A3009 RMK AO2 T00000000
Loading
Personal Weather Stations






























Interactive Weather Map New forecast layout! Learn more

10-Day Weather Forecast

Advertisements
Track Severe Weather on mobile